createdAt,value
2018-01-21T00:01:40.360Z,23.00
2018-01-21T00:04:11.196Z,22.75
2018-01-21T00:06:41.468Z,23.25
2018-01-21T00:09:12.947Z,21.75
2018-01-21T00:11:43.618Z,22.00
2018-01-21T00:14:13.995Z,20.75
2018-01-21T00:16:45.496Z,19.50
2018-01-21T00:19:16.515Z,17.00
2018-01-21T00:21:46.641Z,19.75
2018-01-21T00:24:18.116Z,21.75
2018-01-21T00:26:48.576Z,18.50
2018-01-21T00:29:20.604Z,22.75
2018-01-21T00:31:52.425Z,17.75
2018-01-21T00:34:23.737Z,18.75
2018-01-21T00:36:55.627Z,17.75
2018-01-21T00:39:27.949Z,18.50
2018-01-21T00:41:58.450Z,19.75
2018-01-21T00:44:29.066Z,17.50
2018-01-21T00:46:59.580Z,16.00
2018-01-21T00:49:30.087Z,19.25
2018-01-21T00:52:01.081Z,21.25
2018-01-21T00:54:32.916Z,25.00
2018-01-21T00:57:03.588Z,15.25
2018-01-21T00:59:34.004Z,18.00
2018-01-21T01:02:05.462Z,21.75
2018-01-21T01:04:37.046Z,22.75
2018-01-21T01:07:13.058Z,17.00
2018-01-21T01:09:46.664Z,22.25
2018-01-21T01:12:17.657Z,17.00
2018-01-21T01:14:48.823Z,22.75
2018-01-21T01:17:19.490Z,18.75
2018-01-21T01:19:50.338Z,18.75
2018-01-21T01:22:23.445Z,22.75
2018-01-21T01:24:53.920Z,21.00
2018-01-21T01:27:24.591Z,21.25
2018-01-21T01:29:55.168Z,20.75
2018-01-21T01:32:29.601Z,20.75
2018-01-21T01:35:00.079Z,22.25
2018-01-21T01:37:30.388Z,29.25
2018-01-21T01:40:01.159Z,23.25
2018-01-21T01:42:31.973Z,20.75
2018-01-21T01:45:05.365Z,18.75
2018-01-21T01:47:35.991Z,20.75
2018-01-21T01:50:06.227Z,20.75
2018-01-21T01:52:36.546Z,23.50
2018-01-21T01:55:06.836Z,17.00
2018-01-21T01:57:37.291Z,21.00
2018-01-21T02:00:08.569Z,20.75
2018-01-21T02:02:39.612Z,20.75
2018-01-21T02:05:09.991Z,21.75
2018-01-21T02:07:40.279Z,20.25
2018-01-21T02:10:10.628Z,23.00
2018-01-21T02:12:40.875Z,23.75
2018-01-21T02:15:14.132Z,22.50
2018-01-21T02:17:44.350Z,22.75
2018-01-21T02:20:20.293Z,26.75
2018-01-21T02:22:50.906Z,24.50
2018-01-21T02:25:24.656Z,28.75
2018-01-21T02:27:55.135Z,17.50
2018-01-21T02:30:27.146Z,19.50
2018-01-21T02:32:57.702Z,17.75
2018-01-21T02:35:28.141Z,21.00
2018-01-21T02:37:58.828Z,23.50
2018-01-21T02:40:32.054Z,18.75
2018-01-21T02:43:02.708Z,21.75
2018-01-21T02:45:33.473Z,18.25
2018-01-21T02:48:04.288Z,20.25
2018-01-21T02:50:35.179Z,24.25
2018-01-21T02:53:05.614Z,19.00
2018-01-21T02:55:36.372Z,18.50
2018-01-21T02:58:06.680Z,17.00
2018-01-21T03:00:37.015Z,17.00
2018-01-21T03:03:08.129Z,19.00
2018-01-21T03:05:38.923Z,20.50
2018-01-21T03:08:10.233Z,18.50
2018-01-21T03:10:40.622Z,18.75
2018-01-21T03:13:11.037Z,18.00
2018-01-21T03:15:42.609Z,14.75
2018-01-21T03:18:13.224Z,17.00
2018-01-21T03:20:43.378Z,20.25
2018-01-21T03:23:13.889Z,17.00
2018-01-21T03:25:44.945Z,15.50
2018-01-21T03:28:15.284Z,17.00
2018-01-21T03:30:45.596Z,14.25
2018-01-21T03:33:17.997Z,12.50
2018-01-21T03:35:48.240Z,12.00
2018-01-21T03:38:18.724Z,13.50
2018-01-21T03:40:49.003Z,12.00
2018-01-21T03:43:19.338Z,13.75
2018-01-21T03:45:50.642Z,13.50
2018-01-21T03:48:31.928Z,15.75
2018-01-21T03:51:02.571Z,13.75
2018-01-21T03:53:33.561Z,13.75
2018-01-21T03:56:04.249Z,14.25
2018-01-21T03:58:35.050Z,14.75
2018-01-21T04:01:05.733Z,11.00
2018-01-21T04:03:36.889Z,15.75
2018-01-21T04:06:07.227Z,13.00
2018-01-21T04:08:37.707Z,13.75
2018-01-21T04:11:08.356Z,14.75
2018-01-21T04:13:38.691Z,15.25
2018-01-21T04:16:09.658Z,12.00
2018-01-21T04:18:40.135Z,15.25
2018-01-21T04:21:10.741Z,17.00
2018-01-21T04:23:41.180Z,16.25
2018-01-21T04:26:11.694Z,16.75
2018-01-21T04:28:42.013Z,17.50
2018-01-21T04:31:12.492Z,17.00
2018-01-21T04:33:42.781Z,20.50
2018-01-21T04:36:13.716Z,16.50
2018-01-21T04:38:44.853Z,16.00
2018-01-21T04:41:15.011Z,13.25
2018-01-21T04:43:45.438Z,13.75
2018-01-21T04:46:16.732Z,21.75
2018-01-21T04:48:46.921Z,22.25
2018-01-21T04:51:17.242Z,23.25
2018-01-21T04:53:48.525Z,18.00
2018-01-21T04:56:28.596Z,17.00
2018-01-21T04:59:00.379Z,20.50
2018-01-21T05:01:31.829Z,18.50
2018-01-21T05:04:02.747Z,21.75
2018-01-21T05:06:33.006Z,17.00
2018-01-21T05:09:04.118Z,21.00
2018-01-21T05:11:35.750Z,20.50
2018-01-21T05:14:08.445Z,17.50
2018-01-21T05:19:13.184Z,19.75
2018-01-21T05:21:45.045Z,15.75
2018-01-21T05:24:17.851Z,14.75
2018-01-21T05:26:50.239Z,20.00
2018-01-21T05:29:22.295Z,21.00
2018-01-21T05:31:53.881Z,24.25
2018-01-21T05:34:24.335Z,23.25
2018-01-21T05:36:55.952Z,19.50
2018-01-21T05:39:28.200Z,22.75
2018-01-21T05:41:58.382Z,22.25
2018-01-21T05:44:28.588Z,20.00
2018-01-21T05:46:59.727Z,19.00
2018-01-21T05:49:30.063Z,24.25
2018-01-21T05:52:00.616Z,15.25
2018-01-21T05:54:31.642Z,15.25
2018-01-21T05:57:02.160Z,20.50
2018-01-21T05:59:33.366Z,22.75
2018-01-21T06:02:04.182Z,21.25
2018-01-21T06:04:34.679Z,24.25
2018-01-21T06:07:06.583Z,15.75
2018-01-21T06:09:37.248Z,23.50
2018-01-21T06:12:07.451Z,19.00
2018-01-21T06:14:38.177Z,19.50
2018-01-21T06:17:08.922Z,15.75
2018-01-21T06:19:39.304Z,21.00
2018-01-21T06:22:09.992Z,17.00
2018-01-21T06:24:40.251Z,22.25
2018-01-21T06:27:10.431Z,18.50
2018-01-21T06:29:40.559Z,16.25
2018-01-21T06:32:11.629Z,22.25
2018-01-21T06:34:42.285Z,14.75
2018-01-21T06:37:12.843Z,16.75
2018-01-21T06:39:44.038Z,18.25
2018-01-21T06:42:14.279Z,17.25
2018-01-21T06:44:45.174Z,18.25
2018-01-21T06:47:15.729Z,14.00
2018-01-21T06:49:46.230Z,18.50
2018-01-21T06:52:20.142Z,15.25
2018-01-21T06:54:50.975Z,19.75
2018-01-21T06:57:21.349Z,13.00
2018-01-21T06:59:51.704Z,16.25
2018-01-21T07:02:22.694Z,19.50
2018-01-21T07:04:52.857Z,12.00
2018-01-21T07:07:30.236Z,18.00
2018-01-21T07:10:00.970Z,9.50
2018-01-21T07:12:31.913Z,16.25
2018-01-21T07:15:04.795Z,15.25
2018-01-21T07:17:35.484Z,16.75
2018-01-21T07:20:06.022Z,10.00
2018-01-21T07:22:36.336Z,16.50
2018-01-21T07:25:06.704Z,9.50
2018-01-21T07:27:37.033Z,14.75
2018-01-21T07:30:09.086Z,13.50
2018-01-21T07:32:39.577Z,15.75
2018-01-21T07:35:09.933Z,14.00
2018-01-21T07:37:40.905Z,14.00
2018-01-21T07:40:11.188Z,11.00
2018-01-21T07:42:41.568Z,12.00
2018-01-21T07:45:14.270Z,10.00
2018-01-21T07:47:44.563Z,12.00
2018-01-21T07:50:15.739Z,12.00
2018-01-21T07:52:46.348Z,11.50
2018-01-21T07:55:16.807Z,10.00
2018-01-21T07:57:47.116Z,11.50
2018-01-21T08:00:19.576Z,8.00
2018-01-21T08:02:50.000Z,10.00
2018-01-21T08:05:20.352Z,9.50
2018-01-21T08:07:50.627Z,10.00
2018-01-21T08:10:21.356Z,9.50
2018-01-21T08:12:52.507Z,9.75
2018-01-21T08:15:23.124Z,8.75
2018-01-21T08:17:53.717Z,7.00
2018-01-21T08:20:24.613Z,7.50
2018-01-21T08:22:57.159Z,9.50
2018-01-21T08:25:27.570Z,9.50
2018-01-21T08:27:58.197Z,5.75
2018-01-21T08:30:28.889Z,10.00
2018-01-21T08:32:59.997Z,10.00
2018-01-21T08:37:42.220Z,9.00
2018-01-21T08:42:21.779Z,11.25
2018-01-21T08:44:52.386Z,6.50
2018-01-21T08:47:22.886Z,10.00
2018-01-21T08:49:53.473Z,8.25
2018-01-21T08:52:23.943Z,10.00
2018-01-21T08:54:55.763Z,8.00
2018-01-21T08:57:27.064Z,8.00
2018-01-21T08:59:57.460Z,8.50
2018-01-21T09:02:28.107Z,6.75
2018-01-21T09:04:58.718Z,6.75
2018-01-21T09:07:29.529Z,6.75
2018-01-21T09:10:00.093Z,9.50
2018-01-21T09:12:30.300Z,10.00
2018-01-21T09:15:00.587Z,6.75
2018-01-21T09:17:34.537Z,8.00
2018-01-21T09:20:05.083Z,6.75
2018-01-21T09:22:35.375Z,5.50
2018-01-21T09:25:05.537Z,7.25
2018-01-21T09:27:36.225Z,7.50
2018-01-21T09:30:08.214Z,7.00
2018-01-21T09:32:43.911Z,6.75
2018-01-21T09:35:14.153Z,6.75
2018-01-21T09:37:44.641Z,8.00
2018-01-21T09:40:15.233Z,7.50
2018-01-21T09:42:49.440Z,6.00
2018-01-21T09:45:26.228Z,8.00
2018-01-21T09:47:59.402Z,5.75
2018-01-21T09:50:30.362Z,7.50
2018-01-21T09:53:00.817Z,6.00
2018-01-21T09:55:38.110Z,5.50
2018-01-21T09:58:12.334Z,6.50
2018-01-21T10:00:43.657Z,8.00
2018-01-21T10:03:14.583Z,8.50
2018-01-21T10:05:45.019Z,7.00
2018-01-21T10:08:16.082Z,5.75
2018-01-21T10:10:47.081Z,6.00
2018-01-21T10:13:18.956Z,5.50
2018-01-21T10:15:50.849Z,6.00
2018-01-21T10:18:22.568Z,7.50
2018-01-21T10:20:53.511Z,6.00
2018-01-21T10:23:24.092Z,6.00
2018-01-21T10:28:32.482Z,6.00
2018-01-21T10:31:03.134Z,6.00
2018-01-21T10:33:34.633Z,7.50
2018-01-21T10:36:06.274Z,5.75
2018-01-21T10:38:38.168Z,5.50
2018-01-21T10:41:09.231Z,8.00
2018-01-21T10:43:39.796Z,7.50
2018-01-21T10:46:14.723Z,7.00
2018-01-21T10:48:50.033Z,6.00
2018-01-21T10:51:20.689Z,6.00
2018-01-21T10:53:51.711Z,6.00
2018-01-21T10:56:24.142Z,7.50
2018-01-21T10:58:54.719Z,6.00
2018-01-21T11:01:25.285Z,6.00
2018-01-21T11:03:56.841Z,6.50
2018-01-21T11:06:28.784Z,6.00
2018-01-21T11:09:02.367Z,6.00
2018-01-21T11:11:34.320Z,6.00
2018-01-21T11:14:05.452Z,4.00
2018-01-21T11:16:37.394Z,6.75
2018-01-21T11:19:09.977Z,7.00
2018-01-21T11:21:40.786Z,4.00
2018-01-21T11:24:11.361Z,6.50
2018-01-21T11:26:43.782Z,4.00
2018-01-21T11:29:14.763Z,4.00
2018-01-21T11:31:47.722Z,6.00
2018-01-21T11:34:20.271Z,9.25
2018-01-21T11:36:52.816Z,11.00
2018-01-21T11:39:25.274Z,10.00
2018-01-21T11:41:58.148Z,4.50
2018-01-21T11:44:32.095Z,5.50
2018-01-21T11:47:10.740Z,6.00
2018-01-21T11:49:39.735Z,7.75
2018-01-21T11:52:10.769Z,8.00
2018-01-21T11:54:43.119Z,9.00
2018-01-21T11:57:16.761Z,6.00
2018-01-21T11:59:49.116Z,6.00
2018-01-21T12:02:28.105Z,4.00
2018-01-21T12:05:05.667Z,4.00
2018-01-21T12:07:38.062Z,4.00
2018-01-21T12:10:11.791Z,4.50
2018-01-21T12:12:45.196Z,6.00
2018-01-21T12:15:20.620Z,5.50
2018-01-21T12:17:55.556Z,4.00
2018-01-21T12:20:27.427Z,7.00
2018-01-21T12:23:01.154Z,6.00
2018-01-21T12:25:35.590Z,3.50
2018-01-21T12:28:07.695Z,4.00
2018-01-21T12:30:40.493Z,6.00
2018-01-21T12:33:13.174Z,6.00
2018-01-21T12:35:47.726Z,4.50
2018-01-21T12:38:20.756Z,6.25
2018-01-21T12:40:53.071Z,7.25
2018-01-21T12:43:26.073Z,6.50
2018-01-21T12:46:03.338Z,5.00
2018-01-21T12:48:37.608Z,8.00
2018-01-21T12:51:11.420Z,9.25
2018-01-21T12:53:44.287Z,7.25
2018-01-21T12:56:20.234Z,8.00
2018-01-21T12:58:53.995Z,7.00
2018-01-21T13:01:29.802Z,8.00
2018-01-21T13:04:05.951Z,4.00
2018-01-21T13:06:39.915Z,4.25
2018-01-21T13:09:11.831Z,7.50
2018-01-21T13:11:44.024Z,8.00
2018-01-21T13:14:16.514Z,4.00
2018-01-21T13:16:50.098Z,9.00
2018-01-21T13:19:25.325Z,7.25
2018-01-21T13:22:00.171Z,6.00
2018-01-21T13:24:33.253Z,6.75
2018-01-21T13:27:06.453Z,7.25
2018-01-21T13:29:40.025Z,5.00
2018-01-21T13:32:11.888Z,4.00
2018-01-21T13:34:46.525Z,2.00
2018-01-21T13:40:03.767Z,2.00
2018-01-21T13:42:36.883Z,2.00
2018-01-21T13:45:10.425Z,4.00
2018-01-21T13:47:46.257Z,6.00
2018-01-21T13:50:21.298Z,6.50
2018-01-21T13:52:56.495Z,5.00
2018-01-21T13:58:10.193Z,5.00
2018-01-21T14:00:50.481Z,2.00
2018-01-21T14:03:26.783Z,4.00
2018-01-21T14:06:00.950Z,6.25
2018-01-21T14:08:38.201Z,6.25
2018-01-21T14:11:11.009Z,5.50
2018-01-21T14:13:46.041Z,7.00
2018-01-21T14:16:19.705Z,7.00
2018-01-21T14:18:53.749Z,7.75
2018-01-21T14:21:27.379Z,6.00
2018-01-21T14:23:59.852Z,4.00
2018-01-21T14:26:31.386Z,6.25
2018-01-21T14:29:04.380Z,6.75
2018-01-21T14:31:40.545Z,9.00
2018-01-21T14:34:14.867Z,6.00
2018-01-21T14:36:50.586Z,9.00
2018-01-21T14:39:30.837Z,11.00
2018-01-21T14:42:02.627Z,12.00
2018-01-21T14:44:35.600Z,10.00
2018-01-21T14:47:11.268Z,12.00
2018-01-21T14:49:45.636Z,7.00
2018-01-21T14:52:19.676Z,6.00
2018-01-21T14:54:53.637Z,7.00
2018-01-21T14:57:28.114Z,6.75
2018-01-21T15:00:04.710Z,6.00
2018-01-21T15:02:39.645Z,7.00
2018-01-21T15:05:17.481Z,7.00
2018-01-21T15:07:52.249Z,10.50
2018-01-21T15:10:28.824Z,7.00
2018-01-21T15:13:00.975Z,17.00
2018-01-21T15:15:32.838Z,13.25
2018-01-21T15:18:05.938Z,9.00
2018-01-21T15:20:39.826Z,12.00
2018-01-21T15:23:13.951Z,13.75
2018-01-21T15:25:47.291Z,8.50
2018-01-21T15:28:24.487Z,13.25
2018-01-21T15:30:59.909Z,10.75
2018-01-21T15:33:34.828Z,9.50
2018-01-21T15:36:10.553Z,10.75
2018-01-21T15:38:42.866Z,11.25
2018-01-21T15:41:14.010Z,13.75
2018-01-21T15:43:46.788Z,11.75
2018-01-21T15:46:37.147Z,17.00
2018-01-21T15:49:11.373Z,11.25
2018-01-21T15:51:46.219Z,14.00
2018-01-21T15:54:18.067Z,17.50
2018-01-21T15:56:50.391Z,14.25
2018-01-21T15:59:23.063Z,16.50
2018-01-21T16:01:58.708Z,14.25
2018-01-21T16:04:30.417Z,11.75
2018-01-21T16:07:06.656Z,11.75
2018-01-21T16:09:39.632Z,11.75
2018-01-21T16:12:10.956Z,10.75
2018-01-21T16:14:43.511Z,15.75
2018-01-21T16:17:15.557Z,10.75
2018-01-21T16:19:49.234Z,9.00
2018-01-21T16:22:27.353Z,33.50
2018-01-21T16:24:58.607Z,15.25
2018-01-21T16:27:29.825Z,10.75
2018-01-21T16:30:01.004Z,12.50
2018-01-21T16:32:36.250Z,15.00
2018-01-21T16:35:10.855Z,14.00
2018-01-21T16:37:50.243Z,14.00
2018-01-21T16:40:20.916Z,16.50
2018-01-21T16:42:51.400Z,15.25
2018-01-21T16:45:24.433Z,18.75
2018-01-21T16:47:55.367Z,20.25
2018-01-21T16:50:27.226Z,15.75
2018-01-21T16:52:59.926Z,13.50
2018-01-21T16:55:32.796Z,15.75
2018-01-21T16:58:04.181Z,13.50
2018-01-21T17:00:36.266Z,13.00
2018-01-21T17:03:08.505Z,14.00
2018-01-21T17:05:39.837Z,16.00
2018-01-21T17:08:10.837Z,16.00
2018-01-21T17:10:41.560Z,12.75
2018-01-21T17:13:12.214Z,14.00
2018-01-21T17:15:43.468Z,14.75
2018-01-21T17:18:14.537Z,18.00
2018-01-21T17:20:47.280Z,14.50
2018-01-21T17:23:18.103Z,13.25
2018-01-21T17:25:50.646Z,16.50
2018-01-21T17:31:00.839Z,14.00
2018-01-21T17:33:31.627Z,17.75
2018-01-21T17:36:02.509Z,18.50
2018-01-21T17:38:33.081Z,16.00
2018-01-21T17:41:04.410Z,15.50
2018-01-21T17:43:36.071Z,11.00
2018-01-21T17:46:10.224Z,14.50
2018-01-21T17:48:42.273Z,15.50
2018-01-21T17:51:12.790Z,14.00
2018-01-21T17:53:43.734Z,16.00
2018-01-21T17:56:15.162Z,14.50
2018-01-21T17:58:46.620Z,15.50
2018-01-21T18:01:26.440Z,17.75
2018-01-21T18:03:58.219Z,15.00
2018-01-21T18:06:32.902Z,12.50
2018-01-21T18:09:11.682Z,17.75
2018-01-21T18:11:46.812Z,11.00
2018-01-21T18:14:20.565Z,10.50
2018-01-21T18:16:53.108Z,10.25
2018-01-21T18:19:30.904Z,9.75
2018-01-21T18:22:02.231Z,9.75
2018-01-21T18:24:36.151Z,11.00
2018-01-21T18:27:07.326Z,10.50
2018-01-21T18:29:38.778Z,11.00
2018-01-21T18:32:11.773Z,10.00
2018-01-21T18:34:42.432Z,8.00
2018-01-21T18:37:13.350Z,6.50
2018-01-21T18:39:44.282Z,8.00
2018-01-21T18:42:16.491Z,7.50
2018-01-21T18:44:49.311Z,9.75
2018-01-21T18:47:21.454Z,12.50
2018-01-21T18:49:56.216Z,11.00
2018-01-21T18:52:28.953Z,9.75
2018-01-21T18:55:00.277Z,10.75
2018-01-21T18:57:32.518Z,11.00
2018-01-21T19:03:01.387Z,13.00
2018-01-21T19:05:33.340Z,12.25
2018-01-21T19:08:05.560Z,10.75
2018-01-21T19:10:37.790Z,10.00
2018-01-21T19:13:13.281Z,11.75
2018-01-21T19:15:44.821Z,10.50
2018-01-21T19:18:15.583Z,12.50
2018-01-21T19:20:47.106Z,11.25
2018-01-21T19:23:17.748Z,12.00
2018-01-21T19:25:49.044Z,12.50
2018-01-21T19:28:23.748Z,10.75
2018-01-21T19:30:55.810Z,13.00
2018-01-21T19:33:28.898Z,11.75
2018-01-21T19:36:02.838Z,14.25
2018-01-21T19:38:37.916Z,14.00
2018-01-21T19:41:12.974Z,13.75
2018-01-21T19:43:44.554Z,12.25
2018-01-21T19:46:16.425Z,12.00
2018-01-21T19:48:48.557Z,11.75
2018-01-21T19:51:19.128Z,12.75
2018-01-21T19:53:50.030Z,10.25
2018-01-21T19:56:21.372Z,14.75
2018-01-21T20:01:31.254Z,13.75
2018-01-21T20:04:03.635Z,13.75
2018-01-21T20:06:35.138Z,11.50
2018-01-21T20:09:07.266Z,13.00
2018-01-21T20:11:38.577Z,12.00
2018-01-21T20:14:10.103Z,14.25
2018-01-21T20:16:40.956Z,15.00
2018-01-21T20:19:12.442Z,12.25
2018-01-21T20:21:44.577Z,14.00
2018-01-21T20:24:15.488Z,12.75
2018-01-21T20:26:46.408Z,14.00
2018-01-21T20:29:16.897Z,13.75
2018-01-21T20:31:48.431Z,13.75
2018-01-21T20:34:20.163Z,17.50
2018-01-21T20:36:56.920Z,13.75
2018-01-21T20:39:27.701Z,13.25
2018-01-21T20:41:59.481Z,15.50
2018-01-21T20:44:30.091Z,12.00
2018-01-21T20:47:01.819Z,16.25
2018-01-21T20:49:33.290Z,9.00
2018-01-21T20:52:09.101Z,12.00
2018-01-21T20:54:40.932Z,13.50
2018-01-21T20:57:11.581Z,10.25
2018-01-21T20:59:42.995Z,9.00
2018-01-21T21:02:14.561Z,8.00
2018-01-21T21:04:44.967Z,10.00
2018-01-21T21:07:16.117Z,10.00
2018-01-21T21:09:47.850Z,8.00
2018-01-21T21:12:18.579Z,7.50
2018-01-21T21:14:49.215Z,8.00
2018-01-21T21:17:20.005Z,9.00
2018-01-21T21:19:52.496Z,8.00
2018-01-21T21:22:24.514Z,10.00
2018-01-21T21:24:54.901Z,9.50
2018-01-21T21:27:25.623Z,10.00
2018-01-21T21:29:57.246Z,9.00
2018-01-21T21:32:28.162Z,12.25
2018-01-21T21:34:58.765Z,8.00
2018-01-21T21:37:30.091Z,10.00
2018-01-21T21:40:00.791Z,10.00
2018-01-21T21:42:31.917Z,10.50
2018-01-21T21:45:05.847Z,8.50
2018-01-21T21:47:37.327Z,11.50
2018-01-21T21:50:08.232Z,10.00
2018-01-21T21:52:39.329Z,8.00
2018-01-21T21:55:09.839Z,8.50
2018-01-21T21:57:42.600Z,10.00
2018-01-21T22:00:19.642Z,8.00
2018-01-21T22:02:50.279Z,9.00
2018-01-21T22:05:21.508Z,8.50
2018-01-21T22:07:53.189Z,10.00
2018-01-21T22:10:24.569Z,11.75
2018-01-21T22:12:55.306Z,9.00
2018-01-21T22:15:26.595Z,10.00
2018-01-21T22:17:57.168Z,10.25
2018-01-21T22:20:27.761Z,9.00
2018-01-21T22:22:58.583Z,9.50
2018-01-21T22:25:29.092Z,9.00
2018-01-21T22:27:59.815Z,11.75
2018-01-21T22:30:31.873Z,10.00
2018-01-21T22:33:02.229Z,9.00
2018-01-21T22:35:33.007Z,10.00
2018-01-21T22:38:04.296Z,9.50
2018-01-21T22:40:34.959Z,10.00
2018-01-21T22:43:05.520Z,12.25
2018-01-21T22:45:36.403Z,8.25
2018-01-21T22:48:07.426Z,10.00
2018-01-21T22:50:37.877Z,10.00
2018-01-21T22:53:08.489Z,10.00
2018-01-21T22:55:39.813Z,8.50
2018-01-21T22:58:10.584Z,12.25
2018-01-21T23:00:41.548Z,9.50
2018-01-21T23:03:12.054Z,12.00
2018-01-21T23:05:42.490Z,8.00
2018-01-21T23:08:13.196Z,11.00
2018-01-21T23:10:43.828Z,11.00
2018-01-21T23:13:15.783Z,7.50
2018-01-21T23:15:46.551Z,8.75
2018-01-21T23:18:16.958Z,9.50
2018-01-21T23:21:00.045Z,7.50
2018-01-21T23:23:30.332Z,7.50
2018-01-21T23:26:01.189Z,9.50
2018-01-21T23:28:33.202Z,7.25
2018-01-21T23:31:03.476Z,8.25
2018-01-21T23:33:34.195Z,7.00
2018-01-21T23:36:04.523Z,7.75
2018-01-21T23:38:34.751Z,8.75
2018-01-21T23:41:05.352Z,8.25
2018-01-21T23:43:36.603Z,6.00
2018-01-21T23:46:07.148Z,9.75
2018-01-21T23:48:38.046Z,10.25
2018-01-21T23:51:08.382Z,5.00
2018-01-21T23:53:39.703Z,9.00
2018-01-21T23:56:10.284Z,8.00
2018-01-21T23:58:40.800Z,9.00
